Time;durP1;ratioP1;P1;durP2;ratioP2;P2;SDS_P1;SDS_P2;PMS_P1;PMS_P2;Temp;Humidity;BMP_temperature;BMP_pressure;BME280_temperature;BME280_humidity;BME280_pressure;Samples;Min_cycle;Max_cycle;Signal;HPM_P1;HPM_P2
2022/09/15 00:00:51;;;;;;;9.60;4.90;;;;;;;17.96;64.19;99820.19;5042996;28;20040;-78
2022/09/15 00:03:17;;;;;;;9.93;5.22;;;;;;;18.52;63.71;99940.13;5054092;28;20093;-79
2022/09/15 00:05:43;;;;;;;12.20;4.65;;;;;;;18.66;63.61;99952.84;5038900;28;20077;-79
2022/09/15 00:08:09;;;;;;;13.55;5.53;;;;;;;18.37;63.16;99900.00;5030544;28;20116;-79
2022/09/15 00:10:35;;;;;;;14.88;6.13;;;;;;;18.72;64.30;99944.59;5030231;28;20045;-80
2022/09/15 00:13:00;;;;;;;12.02;4.25;;;;;;;18.81;64.20;99948.72;5029771;28;20037;-79
2022/09/15 00:15:26;;;;;;;16.23;4.88;;;;;;;18.75;64.80;99941.84;5013834;28;20032;-81
2022/09/15 00:17:51;;;;;;;7.45;4.65;;;;;;;18.79;65.82;99949.72;5028390;28;20038;-80
2022/09/15 00:20:19;;;;;;;10.15;5.90;;;;;;;18.72;65.32;99919.81;5029717;28;20050;-80
2022/09/15 00:22:45;;;;;;;12.70;4.53;;;;;;;18.63;67.35;99933.50;5029818;28;20180;-81
2022/09/15 00:25:11;;;;;;;14.52;4.80;;;;;;;17.83;66.03;99802.13;5029133;28;20444;-80
2022/09/15 00:27:37;;;;;;;8.70;5.05;;;;;;;18.47;67.53;99898.69;5030536;28;20034;-81
2022/09/15 00:30:04;;;;;;;9.80;5.13;;;;;;;17.77;69.18;99802.34;5029985;28;20699;-81
2022/09/15 00:32:30;;;;;;;8.73;6.00;;;;;;;17.94;65.41;99828.25;5028848;28;20057;-80
2022/09/15 00:34:55;;;;;;;10.45;4.85;;;;;;;17.78;64.76;99792.59;5029388;28;20052;-79
2022/09/15 00:37:21;;;;;;;10.95;4.35;;;;;;;17.57;67.54;99765.97;4996474;28;20042;-80
2022/09/15 00:39:47;;;;;;;9.13;4.13;;;;;;;17.77;68.07;99805.00;5008571;28;20033;-80
2022/09/15 00:42:17;;;;;;;5.65;3.30;;;;;;;17.65;67.60;99787.78;5009584;28;20550;-80
2022/09/15 00:44:53;;;;;;;19.00;4.82;;;;;;;18.29;66.89;99903.00;4997074;28;20586;-81
2022/09/15 00:47:23;;;;;;;6.43;3.78;;;;;;;18.24;64.85;99923.53;4988935;28;20059;-80
2022/09/15 00:49:53;;;;;;;12.32;5.10;;;;;;;18.27;64.41;99918.13;4988795;28;20043;-81
2022/09/15 00:52:26;;;;;;;7.72;4.32;;;;;;;18.53;64.04;99933.88;4988904;28;20114;-80
2022/09/15 00:55:11;;;;;;;;;;;;;;;18.58;64.94;99922.19;4998988;28;20367;-81
2022/09/15 00:58:03;;;;;;;9.45;3.83;;;;;;;18.37;67.49;99911.50;4994364;28;19960;-79
2022/09/15 01:00:29;;;;;;;10.23;5.18;;;;;;;18.14;66.08;99892.06;5007212;28;20930;-80
2022/09/15 01:02:56;;;;;;;9.48;5.60;;;;;;;18.40;65.07;99906.06;5007723;28;20042;-80
2022/09/15 01:05:52;;;;;;;11.07;4.30;;;;;;;18.52;64.24;99918.00;5007624;28;20046;-79
2022/09/15 01:08:38;;;;;;;8.40;5.45;;;;;;;17.47;66.31;99765.47;4989293;28;20101;-81
2022/09/15 01:11:04;;;;;;;10.88;4.28;;;;;;;18.28;64.59;99901.25;4995180;28;20790;-80
2022/09/15 01:13:29;;;;;;;9.50;4.38;;;;;;;18.14;64.45;99869.91;5006317;28;20049;-79
2022/09/15 01:16:19;;;;;;;9.30;4.63;;;;;;;18.31;65.51;99920.59;4993157;28;20788;-80
2022/09/15 01:19:06;;;;;;;15.88;5.70;;;;;;;18.28;66.28;99927.81;5005951;28;20490;-81
2022/09/15 01:21:38;;;;;;;8.73;4.10;;;;;;;17.43;65.35;99785.06;5007880;28;20041;-81
2022/09/15 01:24:33;;;;;;;15.60;6.05;;;;;;;17.56;64.81;99782.81;5007236;28;20057;-80
2022/09/15 01:27:27;;;;;;;9.85;4.78;;;;;;;18.33;66.80;99918.75;4987539;28;20054;-81
2022/09/15 01:30:13;;;;;;;;;;;;;;;18.30;65.19;99917.97;4988074;28;20133;-80
2022/09/15 01:33:02;;;;;;;12.27;6.55;;;;;;;17.87;65.12;99848.84;4988010;28;19964;-80
2022/09/15 01:35:43;;;;;;;8.57;4.45;;;;;;;17.70;65.73;99843.31;4986720;28;20050;-79
2022/09/15 01:38:28;;;;;;;10.30;5.03;;;;;;;18.28;64.96;99918.03;4727301;28;8119724;-79
2022/09/15 01:40:57;;;;;;;25.92;5.40;;;;;;;18.16;65.53;99897.28;5008323;28;20149;-79
2022/09/15 01:43:26;;;;;;;12.48;5.93;;;;;;;17.57;65.60;99813.72;5007949;28;20125;-79
2022/09/15 01:45:52;;;;;;;10.88;5.25;;;;;;;17.49;67.11;99811.38;5010223;28;20059;-81
2022/09/15 01:48:22;;;;;;;9.05;4.25;;;;;;;17.24;67.23;99771.66;5028637;28;20057;-80
2022/09/15 01:50:53;;;;;;;10.77;5.68;;;;;;;17.88;69.42;99876.25;5027744;28;20092;-81
2022/09/15 01:53:21;;;;;;;10.68;4.28;;;;;;;17.25;69.98;99791.06;5008740;28;20045;-81
2022/09/15 01:56:05;;;;;;;11.05;6.00;;;;;;;16.55;69.81;99688.50;5027590;28;20042;-79
2022/09/15 01:58:32;;;;;;;12.35;4.97;;;;;;;17.74;69.25;99890.03;5027616;28;20497;-80
2022/09/15 02:01:10;;;;;;;10.52;4.85;;;;;;;17.60;71.02;99871.09;5027714;28;20057;-80
2022/09/15 02:03:50;;;;;;;11.95;4.40;;;;;;;17.15;70.75;99779.09;5028003;28;20041;-78
2022/09/15 02:06:35;;;;;;;9.30;4.72;;;;;;;16.72;71.80;99727.66;5027293;28;20098;-79
2022/09/15 02:09:14;;;;;;;17.42;4.70;;;;;;;16.69;71.73;99720.63;5027460;28;20136;-80
2022/09/15 02:11:48;;;;;;;7.90;5.50;;;;;;;16.92;72.18;99770.19;5019523;28;20040;-80
2022/09/15 02:14:27;;;;;;;9.70;4.93;;;;;;;16.75;71.50;99731.03;5020326;28;20100;-80
2022/09/15 02:16:53;;;;;;;12.68;4.63;;;;;;;17.65;72.07;99885.94;5018725;28;20053;-80
2022/09/15 02:19:39;;;;;;;9.70;5.15;;;;;;;17.47;72.77;99850.34;5027376;28;20548;-79
2022/09/15 02:22:17;;;;;;;5.47;3.38;;;;;;;16.85;72.91;99751.00;5027095;28;20083;-76
2022/09/15 02:24:53;;;;;;;13.55;4.80;;;;;;;17.58;73.18;99896.81;5005470;28;20445;-79
2022/09/15 02:27:22;;;;;;;11.15;4.45;;;;;;;16.77;71.02;99738.94;5007779;28;20085;-80
2022/09/15 02:29:50;;;;;;;11.80;4.57;;;;;;;17.45;72.39;99862.81;5007072;28;20099;-80
2022/09/15 02:32:18;;;;;;;8.95;4.50;;;;;;;17.60;72.78;99866.66;5007219;28;20046;-79
2022/09/15 02:34:50;;;;;;;11.02;4.57;;;;;;;17.62;72.24;99859.50;5007440;28;20157;-80
2022/09/15 02:37:17;;;;;;;10.15;5.03;;;;;;;17.12;73.07;99784.50;5018925;28;20053;-81
2022/09/15 02:39:49;;;;;;;9.23;3.75;;;;;;;17.40;72.84;99848.00;5008786;28;20850;-79
2022/09/15 02:42:29;;;;;;;21.60;4.57;;;;;;;16.82;71.87;99731.72;5027655;28;20042;-80
2022/09/15 02:44:54;;;;;;;12.70;4.70;;;;;;;17.67;72.72;99878.78;5014375;28;20045;-80
2022/09/15 02:47:20;;;;;;;12.70;4.47;;;;;;;17.46;73.78;99837.13;5006748;28;20513;-79
2022/09/15 02:49:47;;;;;;;10.05;4.50;;;;;;;17.54;74.43;99872.22;5006915;28;20052;-80
2022/09/15 02:52:13;;;;;;;7.38;4.35;;;;;;;17.40;73.46;99829.44;5006826;28;20054;-79
2022/09/15 02:54:38;;;;;;;15.85;4.38;;;;;;;16.80;73.48;99737.06;5016667;28;20112;-80
2022/09/15 02:57:04;;;;;;;9.27;4.65;;;;;;;17.34;72.58;99819.91;5026397;28;20136;-78
2022/09/15 03:00:11;;;;;;;8.07;4.43;;;;;;;17.51;73.50;99836.06;5029251;28;20046;-79
2022/09/15 03:02:17;;;;;;;7.03;4.38;;;;;;;17.50;72.99;99871.44;5047155;28;20077;-77
2022/09/15 03:04:42;;;;;;;9.60;3.92;;;;;;;17.37;72.36;99834.81;5043586;28;20065;-79
2022/09/15 03:07:08;;;;;;;9.27;4.00;;;;;;;16.96;72.58;99758.56;5026750;28;20513;-80
2022/09/15 03:09:33;;;;;;;8.60;4.07;;;;;;;17.21;73.94;99835.41;5027378;28;20413;-78
2022/09/15 03:11:59;;;;;;;9.23;4.30;;;;;;;16.83;72.82;99751.97;5026663;28;20485;-79
2022/09/15 03:14:25;;;;;;;6.22;3.80;;;;;;;17.60;72.83;99871.09;5025052;28;20344;-80
2022/09/15 03:16:50;;;;;;;10.18;4.50;;;;;;;17.69;73.08;99876.94;5024522;28;20449;-79
2022/09/15 03:19:15;;;;;;;8.93;5.03;;;;;;;17.72;72.07;99881.25;5008468;28;20064;-79
2022/09/15 03:21:41;;;;;;;8.35;3.88;;;;;;;17.53;72.90;99851.91;5026541;28;20507;-79
2022/09/15 03:24:06;;;;;;;13.43;3.97;;;;;;;17.59;72.62;99877.34;5026524;28;20861;-80
2022/09/15 03:26:32;;;;;;;13.40;4.68;;;;;;;17.48;72.87;99846.75;5026454;28;20061;-80
2022/09/15 03:28:57;;;;;;;10.95;3.15;;;;;;;17.64;72.40;99880.69;5026620;28;20117;-78
2022/09/15 03:31:23;;;;;;;8.52;4.13;;;;;;;17.23;72.88;99825.63;5008281;28;20563;-78
2022/09/15 03:33:53;;;;;;;10.15;3.55;;;;;;;17.67;72.89;99885.88;5008756;28;20029;-79
2022/09/15 03:36:19;;;;;;;11.32;3.67;;;;;;;17.61;73.35;99852.50;5008179;28;20065;-79
2022/09/15 03:38:44;;;;;;;15.90;4.90;;;;;;;17.35;73.97;99805.72;5026254;28;20053;-79
2022/09/15 03:41:11;;;;;;;13.63;3.85;;;;;;;17.54;75.03;99847.47;5026349;28;20045;-81
2022/09/15 03:43:37;;;;;;;10.13;3.80;;;;;;;16.74;73.01;99712.53;5006385;28;20417;-80
2022/09/15 03:46:05;;;;;;;8.38;3.53;;;;;;;16.25;72.52;99617.22;5006854;28;20478;-78
2022/09/15 03:48:33;;;;;;;6.50;3.40;;;;;;;16.90;72.47;99736.72;5007019;28;20112;-81
2022/09/15 03:50:59;;;;;;;7.07;2.97;;;;;;;17.20;72.50;99764.72;5017003;28;20053;-79
2022/09/15 03:53:25;;;;;;;9.07;3.42;;;;;;;17.02;73.56;99733.59;5025968;28;20057;-80
2022/09/15 03:55:50;;;;;;;7.18;3.60;;;;;;;16.82;73.75;99726.41;5025851;28;20419;-81
2022/09/15 03:58:17;;;;;;;7.28;3.00;;;;;;;17.58;73.71;99857.88;5027542;28;20046;-81
2022/09/15 04:00:44;;;;;;;7.70;3.90;;;;;;;17.44;74.20;99858.44;5029529;28;21005;-81
2022/09/15 04:03:10;;;;;;;16.92;4.10;;;;;;;17.66;73.39;99878.84;5029958;28;20033;-80
2022/09/15 04:05:36;;;;;;;5.20;3.55;;;;;;;16.83;73.26;99721.06;5029794;28;20064;-80
2022/09/15 04:08:02;;;;;;;16.98;4.00;;;;;;;17.65;73.73;99864.72;5029636;28;20042;-81
2022/09/15 04:10:28;;;;;;;7.45;3.53;;;;;;;17.15;74.08;99764.03;5011374;28;20033;-81
2022/09/15 04:12:55;;;;;;;13.30;4.10;;;;;;;17.57;75.24;99850.00;5029755;28;20033;-80
2022/09/15 04:15:21;;;;;;;9.13;4.93;;;;;;;17.76;75.32;99864.28;5014651;28;20061;-79
2022/09/15 04:17:46;;;;;;;15.30;4.15;;;;;;;17.65;74.65;99832.88;5027122;28;20041;-79
2022/09/15 04:20:13;;;;;;;16.98;4.35;;;;;;;17.85;75.20;99863.13;5029323;28;20504;-82
2022/09/15 04:22:39;;;;;;;22.27;4.72;;;;;;;17.30;75.01;99774.09;5029616;28;20270;-78
2022/09/15 04:25:05;;;;;;;8.18;4.68;;;;;;;17.67;75.59;99846.94;5028637;28;20041;-81
2022/09/15 04:27:33;;;;;;;15.10;5.13;;;;;;;17.81;75.62;99849.09;5029471;28;20144;-80
2022/09/15 04:29:59;;;;;;;13.05;6.03;;;;;;;17.11;73.56;99720.00;5028964;28;20051;-81
2022/09/15 04:32:24;;;;;;;12.23;6.18;;;;;;;17.88;74.73;99853.22;5010646;28;20109;-79
2022/09/15 04:34:50;;;;;;;8.82;3.40;;;;;;;17.80;74.27;99831.41;5028725;28;20135;-80
2022/09/15 04:37:16;;;;;;;19.30;5.88;;;;;;;17.86;72.03;99827.69;5010402;28;20134;-81
2022/09/15 04:39:42;;;;;;;17.08;5.18;;;;;;;17.97;72.98;99840.53;5028522;28;20373;-80
2022/09/15 04:42:07;;;;;;;14.02;4.28;;;;;;;17.86;70.53;99796.72;5028723;28;20026;-80
2022/09/15 04:44:33;;;;;;;11.77;4.20;;;;;;;18.31;70.46;99851.53;5019326;28;20050;-81
2022/09/15 04:46:58;;;;;;;13.27;5.25;;;;;;;18.20;68.97;99813.91;5016664;28;20120;-81
2022/09/15 04:49:24;;;;;;;15.57;5.57;;;;;;;18.36;69.27;99832.75;5010405;28;20041;-80
2022/09/15 04:51:53;;;;;;;13.00;6.05;;;;;;;18.33;68.61;99816.91;5028291;28;20496;-80
2022/09/15 04:54:19;;;;;;;24.60;10.10;;;;;;;18.61;67.67;99871.56;5026833;28;20033;-81
2022/09/15 04:56:44;;;;;;;16.17;8.32;;;;;;;18.74;66.66;99873.66;5028396;28;20865;-78
2022/09/15 04:59:15;;;;;;;11.82;5.88;;;;;;;18.68;65.76;99842.03;5028053;28;20478;-80
2022/09/15 05:01:41;;;;;;;14.25;4.55;;;;;;;18.91;66.01;99875.59;5027771;28;20038;-78
2022/09/15 05:04:06;;;;;;;8.60;4.38;;;;;;;19.04;64.71;99877.75;5028129;28;20044;-79
2022/09/15 05:06:33;;;;;;;11.77;4.20;;;;;;;18.26;64.65;99720.72;5028749;28;20485;-81
2022/09/15 05:08:59;;;;;;;9.57;4.15;;;;;;;19.04;64.01;99845.84;5027194;28;20104;-81
2022/09/15 05:11:32;;;;;;;10.07;4.30;;;;;;;19.24;64.49;99875.06;5027772;28;20045;-81
2022/09/15 05:13:58;;;;;;;8.73;4.43;;;;;;;19.10;63.00;99811.84;5023777;28;20615;-79
2022/09/15 05:16:26;;;;;;;12.90;5.75;;;;;;;19.50;62.87;99868.59;5017529;28;20060;-80
2022/09/15 05:18:54;;;;;;;7.80;4.65;;;;;;;18.89;61.94;99744.53;5026831;28;20067;-80
2022/09/15 05:21:21;;;;;;;8.00;3.42;;;;;;;18.87;61.90;99729.59;5028767;28;20026;-81
2022/09/15 05:23:47;;;;;;;11.98;4.55;;;;;;;19.94;60.19;99844.38;5027340;28;20038;-80
2022/09/15 05:26:15;;;;;;;5.60;3.58;;;;;;;20.81;58.64;99878.34;5027940;28;20470;-80
2022/09/15 05:28:41;;;;;;;5.95;4.22;;;;;;;21.12;56.92;99805.59;5027729;28;20089;-79
2022/09/15 05:31:09;;;;;;;9.32;3.83;;;;;;;20.95;56.73;99741.59;5028222;28;20170;-79
2022/09/15 05:33:36;;;;;;;8.65;4.10;;;;;;;21.60;54.65;99787.00;5029734;28;20048;-80
2022/09/15 05:36:02;;;;;;;10.15;4.03;;;;;;;22.42;55.42;99888.38;5028675;28;20064;-79
2022/09/15 05:38:29;;;;;;;12.00;4.25;;;;;;;22.45;54.63;99837.41;5028215;28;20053;-79
2022/09/15 05:41:17;;;;;;;18.70;3.78;;;;;;;22.94;52.62;99885.31;5028569;28;20931;-78
2022/09/15 05:43:44;;;;;;;18.05;4.57;;;;;;;22.31;53.18;99878.31;5025832;28;20476;-81
2022/09/15 05:46:10;;;;;;;10.95;3.83;;;;;;;22.81;52.48;99892.34;5008088;28;20050;-78
2022/09/15 05:48:37;;;;;;;13.50;3.33;;;;;;;22.88;52.52;99898.19;5008196;28;20037;-79
2022/09/15 05:51:03;;;;;;;6.22;3.28;;;;;;;22.29;51.81;99791.13;5017277;28;20034;-80
2022/09/15 05:53:29;;;;;;;7.78;4.97;;;;;;;22.38;51.06;99760.31;5027346;28;20064;-79
2022/09/15 05:56:02;;;;;;;5.78;3.45;;;;;;;22.12;52.07;99795.63;5027210;28;20038;-78
2022/09/15 05:58:29;;;;;;;10.80;4.47;;;;;;;22.20;53.11;99848.63;5027238;28;20042;-79
2022/09/15 06:00:54;;;;;;;9.18;3.70;;;;;;;22.37;53.65;99898.47;5045866;28;20025;-75
2022/09/15 06:03:21;;;;;;;21.48;4.88;;;;;;;22.13;53.90;99880.16;5051895;28;20021;-78
2022/09/15 06:05:47;;;;;;;6.75;3.45;;;;;;;21.37;53.58;99733.03;5033413;28;20052;-81
2022/09/15 06:08:12;;;;;;;13.43;4.00;;;;;;;21.34;54.32;99743.06;5009813;28;20038;-81
2022/09/15 06:10:38;;;;;;;10.30;4.45;;;;;;;22.04;55.38;99832.59;5026977;28;20037;-80
2022/09/15 06:13:04;;;;;;;11.10;4.05;;;;;;;21.77;55.27;99802.94;5027103;28;20500;-81
2022/09/15 06:15:30;;;;;;;12.00;5.72;;;;;;;22.16;54.80;99856.91;5026152;28;20037;-80
2022/09/15 06:17:56;;;;;;;10.98;4.97;;;;;;;21.92;55.48;99860.00;5025770;28;20612;-80
2022/09/15 06:20:22;;;;;;;5.70;4.18;;;;;;;21.45;55.33;99735.34;5026363;28;20057;-77
2022/09/15 06:22:47;;;;;;;6.18;3.55;;;;;;;21.26;55.50;99744.34;5027041;28;20060;-82
2022/09/15 06:25:14;;;;;;;20.08;6.00;;;;;;;21.23;56.37;99740.97;5026521;28;20533;-82
2022/09/15 06:27:41;;;;;;;9.73;5.55;;;;;;;21.77;57.29;99851.00;5027870;28;20034;-80
2022/09/15 06:30:08;;;;;;;16.20;5.03;;;;;;;21.03;57.68;99708.22;5026953;28;20038;-79
2022/09/15 06:32:35;;;;;;;12.48;5.85;;;;;;;21.49;58.50;99801.81;5008941;28;20057;-81
2022/09/15 06:35:06;;;;;;;10.35;4.82;;;;;;;20.94;58.28;99723.88;5008550;28;20065;-81
2022/09/15 06:37:35;;;;;;;9.18;3.80;;;;;;;21.50;57.49;99824.91;5026351;28;20049;-80
2022/09/15 06:40:01;;;;;;;9.70;4.60;;;;;;;20.93;57.57;99711.47;5026580;28;20127;-80
2022/09/15 06:42:26;;;;;;;12.90;5.75;;;;;;;21.94;57.76;99850.09;5027174;28;20477;-81
2022/09/15 06:44:52;;;;;;;17.88;4.78;;;;;;;21.74;58.19;99819.16;5016001;28;20044;-81
2022/09/15 06:47:18;;;;;;;9.07;4.88;;;;;;;21.25;58.17;99731.91;5017018;28;20053;-79
2022/09/15 06:49:44;;;;;;;7.63;4.47;;;;;;;21.62;58.05;99767.28;5026367;28;20553;-81
2022/09/15 06:52:09;;;;;;;15.98;4.50;;;;;;;21.71;58.11;99797.97;5026596;28;20382;-80
2022/09/15 06:54:35;;;;;;;12.93;5.65;;;;;;;21.79;57.42;99789.50;5027117;28;20095;-78
2022/09/15 06:57:00;;;;;;;18.88;5.15;;;;;;;21.93;57.97;99806.47;5027531;28;20540;-80
2022/09/15 06:59:27;;;;;;;16.73;5.00;;;;;;;21.88;57.69;99789.84;5026363;28;20129;-79
2022/09/15 07:01:53;;;;;;;8.35;3.92;;;;;;;22.10;57.79;99809.97;5008001;28;20041;-78
2022/09/15 07:04:20;;;;;;;8.00;3.72;;;;;;;21.64;57.67;99733.34;5008553;28;20097;-80
2022/09/15 07:06:46;;;;;;;12.45;5.03;;;;;;;22.24;57.40;99820.81;5026291;28;20040;-81
2022/09/15 07:09:12;;;;;;;8.30;3.63;;;;;;;22.13;57.27;99780.44;5026604;28;20029;-80
2022/09/15 07:11:38;;;;;;;22.95;6.03;;;;;;;21.97;57.13;99735.03;5026483;28;20041;-79
2022/09/15 07:14:03;;;;;;;15.45;5.60;;;;;;;21.81;56.25;99716.34;5022799;28;20038;-80
2022/09/15 07:16:29;;;;;;;14.23;4.75;;;;;;;21.94;55.99;99716.53;5017140;28;20446;-79
2022/09/15 07:18:57;;;;;;;12.32;5.60;;;;;;;22.17;55.45;99749.03;5024904;28;20074;-81
2022/09/15 07:21:23;;;;;;;15.90;3.90;;;;;;;22.74;55.96;99829.47;5027158;28;20560;-79
2022/09/15 07:23:56;;;;;;;8.95;4.20;;;;;;;22.90;55.54;99859.69;5025979;28;20056;-80
2022/09/15 07:26:25;;;;;;;14.52;6.63;;;;;;;23.03;55.11;99829.53;5026278;28;20081;-79
2022/09/15 07:28:58;;;;;;;14.50;4.70;;;;;;;23.40;54.49;99865.63;5024946;28;20042;-79
2022/09/15 07:31:26;;;;;;;10.20;4.88;;;;;;;23.32;55.00;99851.81;5026580;28;20619;-80
2022/09/15 07:33:52;;;;;;;10.10;4.38;;;;;;;22.55;53.76;99714.72;5029065;28;20064;-80
2022/09/15 07:36:18;;;;;;;16.10;4.55;;;;;;;23.28;53.57;99831.59;5030654;28;20466;-80
2022/09/15 07:38:47;;;;;;;9.88;4.63;;;;;;;22.80;54.36;99750.66;5011390;28;20080;-80
2022/09/15 07:41:15;;;;;;;15.93;5.07;;;;;;;23.39;53.60;99854.06;5010459;28;20116;-80
2022/09/15 07:43:51;;;;;;;11.10;4.70;;;;;;;23.57;53.85;99867.25;5008910;28;20129;-79
2022/09/15 07:46:18;;;;;;;13.23;4.35;;;;;;;23.05;53.07;99771.44;4992309;28;20573;-81
2022/09/15 07:48:45;;;;;;;14.10;4.93;;;;;;;23.51;53.54;99849.75;5010095;28;20065;-80
2022/09/15 07:51:11;;;;;;;6.85;4.28;;;;;;;22.46;52.45;99651.97;5010696;28;20042;-82
2022/09/15 07:53:36;;;;;;;10.95;4.82;;;;;;;23.59;52.08;99823.31;5010221;28;20054;-81
2022/09/15 07:56:02;;;;;;;19.58;5.63;;;;;;;23.28;53.48;99778.88;5003959;28;20079;-80
2022/09/15 07:58:28;;;;;;;13.82;3.88;;;;;;;23.23;52.64;99772.13;5010114;28;20419;-81
2022/09/15 08:00:53;;;;;;;12.48;4.72;;;;;;;23.66;52.47;99834.50;5009753;28;20034;-81
2022/09/15 08:03:19;;;;;;;17.77;6.03;;;;;;;23.10;51.64;99715.81;5010721;28;20034;-78
2022/09/15 08:05:44;;;;;;;12.02;3.88;;;;;;;23.49;51.37;99768.63;4999074;28;20849;-80
2022/09/15 08:08:10;;;;;;;13.43;5.72;;;;;;;24.21;51.26;99868.50;5010089;28;20042;-80
2022/09/15 08:10:38;;;;;;;9.00;4.20;;;;;;;24.05;52.16;99857.06;5009945;28;20042;-77
2022/09/15 08:13:05;;;;;;;8.40;3.58;;;;;;;24.18;50.85;99859.78;4992225;28;20045;-81
2022/09/15 08:15:30;;;;;;;13.52;4.30;;;;;;;24.10;50.14;99821.94;4997256;28;20089;-78
2022/09/15 08:17:56;;;;;;;14.63;4.78;;;;;;;24.59;49.64;99891.13;5008513;28;20054;-80
2022/09/15 08:20:21;;;;;;;15.43;5.25;;;;;;;24.56;50.05;99893.97;5010018;28;20074;-79
2022/09/15 08:22:47;;;;;;;28.38;5.68;;;;;;;24.11;49.07;99800.34;5010067;28;20038;-81
2022/09/15 08:25:13;;;;;;;36.58;5.82;;;;;;;24.08;49.65;99797.88;5009451;28;20045;-79
2022/09/15 08:27:39;;;;;;;11.82;4.95;;;;;;;24.64;50.08;99857.63;5010640;28;20061;-82
2022/09/15 08:30:06;;;;;;;12.98;4.25;;;;;;;24.99;49.23;99877.69;5010293;28;20060;-81
2022/09/15 08:32:32;;;;;;;8.20;4.40;;;;;;;25.10;49.23;99891.22;5009378;28;20121;-83
2022/09/15 08:34:59;;;;;;;8.15;3.38;;;;;;;24.37;48.57;99763.78;5010014;28;20054;-80
2022/09/15 08:37:24;;;;;;;14.27;4.93;;;;;;;25.02;48.78;99856.84;5010456;28;20053;-80
2022/09/15 08:39:51;;;;;;;7.68;4.03;;;;;;;24.99;48.85;99826.69;5009225;28;20123;-80
2022/09/15 08:42:19;;;;;;;4.35;2.85;;;;;;;25.09;47.79;99819.69;4993100;28;20053;-81
2022/09/15 08:44:54;;;;;;;15.50;5.05;;;;;;;25.44;47.83;99851.28;5009555;28;20042;-79
2022/09/15 08:47:24;;;;;;;17.30;3.83;;;;;;;25.53;48.61;99853.34;5009793;28;20049;-81
2022/09/15 08:50:19;;;;;;;8.80;4.70;;;;;;;25.68;48.01;99863.00;5008685;28;20054;-80
2022/09/15 08:52:58;;;;;;;16.42;4.20;;;;;;;25.80;47.94;99865.75;5009343;28;20061;-81
2022/09/15 08:55:36;;;;;;;14.27;5.55;;;;;;;25.95;47.37;99862.00;5009466;28;20097;-80
2022/09/15 08:58:02;;;;;;;23.15;5.55;;;;;;;25.21;48.09;99746.34;5009986;28;20056;-80
2022/09/15 09:00:30;;;;;;;9.80;4.10;;;;;;;25.79;47.32;99824.56;5027939;28;20060;-80
2022/09/15 09:03:07;;;;;;;8.80;3.92;;;;;;;26.33;46.01;99863.69;5030360;28;20426;-80
2022/09/15 09:06:07;;;;;;;8.35;2.80;;;;;;;26.34;44.68;99851.97;5011076;28;20073;-80
2022/09/15 09:08:48;;;;;;;15.55;4.40;;;;;;;26.47;44.25;99857.25;5031373;28;20070;-77
2022/09/15 09:11:17;;;;;;;8.27;3.75;;;;;;;26.52;44.54;99855.94;5034008;28;20086;-77
2022/09/15 09:14:12;;;;;;;17.80;3.20;;;;;;;26.66;43.49;99835.22;4996017;28;20409;-81
2022/09/15 09:16:44;;;;;;;6.55;3.42;;;;;;;26.73;43.20;99844.56;5000406;28;20038;-81
2022/09/15 09:19:25;;;;;;;6.88;3.35;;;;;;;26.77;43.11;99834.41;4989616;28;20034;-80
2022/09/15 09:22:04;;;;;;;8.02;3.78;;;;;;;26.38;42.99;99726.13;5008647;28;20065;-79
2022/09/15 09:24:30;;;;;;;7.28;4.43;;;;;;;26.97;42.99;99830.16;5009668;28;20034;-81
2022/09/15 09:26:55;;;;;;;7.38;3.38;;;;;;;26.89;43.67;99826.25;5008739;28;20584;-78
2022/09/15 09:29:50;;;;;;;14.15;8.13;;;;;;;27.11;42.27;99829.94;5008717;28;20155;-80
2022/09/15 09:32:26;;;;;;;9.10;4.07;;;;;;;26.44;42.36;99702.31;4990734;28;20056;-79
2022/09/15 09:35:11;;;;;;;12.70;6.25;;;;;;;27.25;43.43;99818.97;5008435;28;20049;-77
2022/09/15 09:37:37;;;;;;;8.95;3.22;;;;;;;26.71;41.68;99703.84;4992158;28;20065;-78
2022/09/15 09:40:02;;;;;;;8.10;2.92;;;;;;;27.14;41.09;99724.69;4988564;28;20046;-79
2022/09/15 09:42:36;;;;;;;9.38;3.58;;;;;;;27.12;40.98;99726.63;4989040;28;20498;-83
2022/09/15 09:45:04;;;;;;;13.93;4.18;;;;;;;27.17;41.78;99719.03;4972019;28;20046;-81
2022/09/15 09:47:33;;;;;;;28.75;3.80;;;;;;;27.95;41.93;99819.69;4993652;28;20136;-80
2022/09/15 09:49:59;;;;;;;7.95;4.45;;;;;;;27.95;41.13;99800.81;4990364;28;20049;-80
2022/09/15 09:52:33;;;;;;;5.78;3.20;;;;;;;28.03;40.66;99787.56;5007697;28;20042;-81
2022/09/15 09:55:23;;;;;;;16.55;3.83;;;;;;;28.21;40.23;99801.34;5007373;28;20482;-80
2022/09/15 09:57:49;;;;;;;12.43;4.03;;;;;;;27.72;40.12;99698.41;4997533;28;20069;-80
2022/09/15 10:00:36;;;;;;;12.18;3.25;;;;;;;28.26;39.29;99742.47;4991021;28;20049;-80
2022/09/15 10:03:15;;;;;;;14.45;3.15;;;;;;;28.71;39.05;99788.16;5007894;28;20156;-80
2022/09/15 10:05:42;;;;;;;9.23;3.33;;;;;;;28.81;38.27;99783.66;5007317;28;20179;-79
2022/09/15 10:08:18;;;;;;;7.55;2.50;;;;;;;28.37;38.49;99692.97;5006975;28;20052;-80
2022/09/15 10:10:57;;;;;;;5.78;2.78;;;;;;;28.42;38.58;99702.41;5007345;28;20041;-81
2022/09/15 10:13:22;;;;;;;12.77;3.40;;;;;;;29.00;37.68;99758.59;4989729;28;20067;-79
2022/09/15 10:15:53;;;;;;;17.17;3.15;;;;;;;29.30;37.77;99780.41;4988959;28;20421;-82
2022/09/15 10:18:36;;;;;;;11.43;3.60;;;;;;;29.36;36.45;99802.34;5006725;28;20041;-82
2022/09/15 10:21:04;;;;;;;20.23;3.15;;;;;;;29.25;36.72;99764.59;5007411;28;20038;-83
2022/09/15 10:23:33;;;;;;;7.78;2.95;;;;;;;28.81;35.85;99670.22;5006888;28;20057;-81
2022/09/15 10:26:19;;;;;;;10.65;3.50;;;;;;;29.69;36.60;99776.03;5007502;28;20054;-80
2022/09/15 10:29:09;;;;;;;11.93;4.22;;;;;;;29.30;36.13;99667.72;5007186;28;20125;-83
2022/09/15 10:31:34;;;;;;;10.15;2.67;;;;;;;30.05;34.72;99779.06;5007155;28;20045;-80
2022/09/15 10:34:23;;;;;;;7.45;2.90;;;;;;;30.23;35.41;99769.25;5007491;28;20085;-81
2022/09/15 10:36:48;;;;;;;15.35;3.50;;;;;;;30.25;34.36;99687.88;4989440;28;20053;-82
2022/09/15 10:39:35;;;;;;;11.70;3.67;;;;;;;30.64;33.90;99756.41;5025669;28;20193;-80
2022/09/15 10:42:21;;;;;;;9.02;2.90;;;;;;;30.50;35.31;99694.56;5027033;28;20595;-81
2022/09/15 10:44:52;;;;;;;4.97;2.22;;;;;;;30.24;33.75;99621.22;5017564;28;20564;-81
2022/09/15 10:47:24;;;;;;;21.42;3.75;;;;;;;31.15;33.21;99751.59;5007034;28;20121;-80
2022/09/15 10:50:01;;;;;;;13.00;3.63;;;;;;;31.19;33.13;99747.59;5007043;28;20057;-82
2022/09/15 10:52:45;;;;;;;14.73;2.78;;;;;;;31.65;32.70;99732.22;5006704;28;20045;-81
2022/09/15 10:55:49;;;;;;;15.88;1.92;;;;;;;31.51;32.82;99732.75;5019174;28;20120;-82
2022/09/15 10:58:27;;;;;;;6.75;2.20;;;;;;;31.59;31.50;99737.44;4926344;29;20098;-81
2022/09/15 11:00:52;;;;;;;8.85;2.85;;;;;;;31.08;31.91;99633.94;4926506;29;20206;-82
2022/09/15 11:03:37;;;;;;;26.60;3.55;;;;;;;30.52;32.06;99567.16;4980954;28;20437;-81
2022/09/15 11:06:28;;;;;;;8.05;2.13;;;;;;;31.32;32.39;99722.84;5026608;28;20053;-82
2022/09/15 11:09:32;;;;;;;11.77;2.03;;;;;;;31.26;32.42;99718.03;5026839;28;20048;-80
2022/09/15 11:12:15;;;;;;;;;;;;;;;31.38;32.01;99732.25;5030896;28;20042;-82
2022/09/15 11:14:59;;;;;;;18.80;4.03;;;;;;;31.27;32.02;99723.28;5021268;28;20337;-82
2022/09/15 11:18:03;;;;;;;12.63;2.78;;;;;;;31.20;32.76;99737.59;5027009;28;20041;-80
2022/09/15 11:20:44;;;;;;;22.63;3.15;;;;;;;31.46;32.15;99713.38;5030429;28;20045;-80
2022/09/15 11:23:32;;;;;;;10.38;2.55;;;;;;;31.46;31.16;99727.78;5030241;28;20096;-80
2022/09/15 11:26:06;;;;;;;6.15;2.28;;;;;;;31.40;32.03;99720.28;5025437;28;20049;-81
2022/09/15 11:28:56;;;;;;;26.05;4.70;;;;;;;31.24;32.69;99701.06;5030147;28;20042;-82
2022/09/15 11:31:37;;;;;;;20.40;2.58;;;;;;;31.20;32.46;99691.50;5030074;28;20048;-82
2022/09/15 11:34:32;;;;;;;11.95;2.10;;;;;;;31.32;31.89;99707.41;5029407;28;20038;-83
2022/09/15 11:37:08;;;;;;;10.43;2.15;;;;;;;31.33;32.37;99705.56;5030085;28;20065;-83
2022/09/15 11:39:40;;;;;;;9.98;3.35;;;;;;;31.23;33.32;99713.72;5028427;28;20111;-82
2022/09/15 11:42:08;;;;;;;15.38;3.40;;;;;;;31.32;31.91;99703.84;5031789;28;20137;-79
2022/09/15 11:44:37;;;;;;;16.23;3.47;;;;;;;31.17;31.98;99683.69;5024688;28;20056;-82
2022/09/15 11:47:24;;;;;;;16.38;2.83;;;;;;;30.62;32.10;99595.06;5010754;28;20049;-83